createdAt,value
2018-04-16T00:01:53.604Z,24.57
2018-04-16T00:04:22.737Z,22.40
2018-04-16T00:06:51.885Z,22.17
2018-04-16T00:09:21.036Z,21.83
2018-04-16T00:11:50.199Z,21.50
2018-04-16T00:14:19.308Z,24.90
2018-04-16T00:16:48.435Z,32.53
2018-04-16T00:19:17.573Z,39.90
2018-04-16T00:21:46.693Z,47.37
2018-04-16T00:24:15.813Z,59.27
2018-04-16T00:26:44.988Z,76.87
2018-04-16T00:29:14.103Z,67.90
2018-04-16T00:31:48.957Z,64.23
2018-04-16T00:34:23.934Z,46.83
2018-04-16T00:36:58.770Z,36.67
2018-04-16T00:42:35.500Z,22.67
2018-04-16T00:45:10.502Z,19.63
2018-04-16T00:47:45.503Z,18.53
2018-04-16T00:50:20.280Z,19.10
2018-04-16T00:52:55.201Z,18.80
2018-04-16T00:55:30.045Z,20.63
2018-04-16T00:58:04.929Z,19.27
2018-04-16T01:00:39.706Z,19.17
2018-04-16T01:03:14.673Z,19.43
2018-04-16T01:05:49.589Z,19.37
2018-04-16T01:08:24.538Z,20.53
2018-04-16T01:10:59.304Z,20.33
2018-04-16T01:13:34.111Z,20.30
2018-04-16T01:16:08.986Z,20.60
2018-04-16T01:18:43.985Z,21.17
2018-04-16T01:21:18.837Z,19.20
2018-04-16T01:23:53.578Z,20.20
2018-04-16T01:26:28.453Z,20.27
2018-04-16T01:29:03.361Z,19.77
2018-04-16T01:31:38.133Z,19.67
2018-04-16T01:34:13.017Z,18.50
2018-04-16T01:36:47.981Z,20.10
2018-04-16T01:39:22.860Z,19.50
2018-04-16T01:41:57.551Z,17.63
2018-04-16T01:44:32.436Z,18.27
2018-04-16T01:47:07.212Z,17.67
2018-04-16T01:49:42.055Z,16.27
2018-04-16T01:52:16.948Z,17.23
2018-04-16T01:54:51.853Z,18.20
2018-04-16T01:57:26.823Z,18.50
2018-04-16T02:00:01.601Z,17.70
2018-04-16T02:02:36.484Z,16.07
2018-04-16T02:05:11.402Z,16.07
2018-04-16T02:07:46.249Z,16.50
2018-04-16T02:10:21.152Z,15.70
2018-04-16T02:12:55.937Z,16.00
2018-04-16T02:15:30.908Z,15.90
2018-04-16T02:18:05.768Z,16.90
2018-04-16T02:20:40.557Z,15.83
2018-04-16T02:23:26.524Z,15.80
2018-04-16T02:26:01.558Z,16.40
2018-04-16T02:28:36.547Z,15.30
2018-04-16T02:31:11.414Z,17.30
2018-04-16T02:33:46.383Z,17.17
2018-04-16T02:36:21.219Z,16.20
2018-04-16T02:38:56.171Z,16.30
2018-04-16T02:41:30.959Z,16.60
2018-04-16T02:44:06.140Z,17.03
2018-04-16T02:46:40.970Z,17.20
2018-04-16T02:49:15.846Z,15.43
2018-04-16T02:51:50.691Z,15.97
2018-04-16T02:54:25.521Z,17.00
2018-04-16T02:57:00.363Z,16.87
2018-04-16T02:59:35.262Z,15.80
2018-04-16T03:02:10.198Z,16.30
2018-04-16T03:04:45.085Z,15.33
2018-04-16T03:07:20.114Z,14.93
2018-04-16T03:09:54.965Z,13.87
2018-04-16T03:12:29.812Z,13.60
2018-04-16T03:15:04.764Z,14.30
2018-04-16T03:17:39.627Z,14.37
2018-04-16T03:20:14.420Z,14.10
2018-04-16T03:22:49.286Z,14.10
2018-04-16T03:25:24.172Z,13.03
2018-04-16T03:27:59.120Z,14.53
2018-04-16T03:30:34.020Z,14.03
2018-04-16T03:33:09.023Z,14.57
2018-04-16T03:35:43.866Z,13.93
2018-04-16T03:38:18.868Z,14.83
2018-04-16T03:40:53.716Z,16.20
2018-04-16T03:43:28.689Z,15.10
2018-04-16T03:46:03.569Z,15.17
2018-04-16T03:48:38.388Z,15.87
2018-04-16T03:51:23.188Z,15.17
2018-04-16T03:53:53.884Z,14.03
2018-04-16T03:56:23.020Z,15.13
2018-04-16T03:58:52.153Z,15.27
2018-04-16T04:01:21.303Z,15.30
2018-04-16T04:03:50.451Z,17.20
2018-04-16T04:06:19.584Z,15.40
2018-04-16T04:08:48.691Z,14.70
2018-04-16T04:11:17.845Z,15.37
2018-04-16T04:13:46.984Z,15.10
2018-04-16T04:16:16.127Z,15.57
2018-04-16T04:18:45.307Z,15.40
2018-04-16T04:21:14.443Z,15.60
2018-04-16T04:23:49.436Z,16.30
2018-04-16T04:26:24.484Z,15.73
2018-04-16T04:28:59.417Z,14.67
2018-04-16T04:31:28.536Z,15.50
2018-04-16T04:33:57.695Z,16.27
2018-04-16T04:36:26.829Z,16.33
2018-04-16T04:38:55.951Z,16.40
2018-04-16T04:41:25.080Z,17.00
2018-04-16T04:43:54.235Z,18.03
2018-04-16T04:46:23.350Z,18.07
2018-04-16T04:48:52.514Z,21.57
2018-04-16T04:51:21.673Z,22.80
2018-04-16T04:53:50.807Z,20.67
2018-04-16T04:56:19.918Z,18.90
2018-04-16T04:58:49.061Z,18.63
2018-04-16T05:01:18.179Z,17.87
2018-04-16T05:03:47.327Z,18.23
2018-04-16T05:06:16.524Z,17.00
2018-04-16T05:08:45.620Z,17.37
2018-04-16T05:11:15.264Z,16.93
2018-04-16T05:13:44.424Z,17.23
2018-04-16T05:16:13.597Z,16.77
2018-04-16T05:18:42.757Z,16.40
2018-04-16T05:21:11.913Z,16.00
2018-04-16T05:23:41.077Z,14.90
2018-04-16T05:26:10.166Z,15.67
2018-04-16T05:28:39.310Z,16.60
2018-04-16T05:31:08.455Z,16.60
2018-04-16T05:33:37.598Z,16.17
2018-04-16T05:36:06.742Z,14.97
2018-04-16T05:38:35.877Z,15.27
2018-04-16T05:41:05.045Z,15.40
2018-04-16T05:43:34.188Z,13.80
2018-04-16T05:46:03.389Z,16.30
2018-04-16T05:48:32.533Z,16.27
2018-04-16T05:51:01.678Z,15.00
2018-04-16T05:53:30.979Z,14.40
2018-04-16T05:56:00.109Z,14.10
2018-04-16T05:58:29.218Z,14.87
2018-04-16T06:00:58.352Z,16.50
2018-04-16T06:03:27.487Z,14.93
2018-04-16T06:05:56.618Z,14.27
2018-04-16T06:08:25.801Z,17.00
2018-04-16T06:10:54.911Z,15.10
2018-04-16T06:13:24.044Z,17.20
2018-04-16T06:15:53.184Z,17.53
2018-04-16T06:18:22.319Z,19.37
2018-04-16T06:20:51.427Z,18.30
2018-04-16T06:23:20.567Z,17.80
2018-04-16T06:25:49.731Z,18.60
2018-04-16T06:28:18.877Z,16.00
2018-04-16T06:30:48.000Z,16.60
2018-04-16T06:33:17.116Z,16.57
2018-04-16T06:35:46.293Z,17.57
2018-04-16T06:38:15.404Z,17.93
2018-04-16T06:40:44.549Z,16.80
2018-04-16T06:43:13.695Z,16.97
2018-04-16T06:45:42.841Z,16.87
2018-04-16T06:48:11.976Z,17.10
2018-04-16T06:50:41.157Z,17.93
2018-04-16T06:53:10.344Z,17.53
2018-04-16T06:55:39.484Z,18.27
2018-04-16T06:58:08.659Z,19.73
2018-04-16T07:00:37.794Z,18.10
2018-04-16T07:03:06.998Z,18.80
2018-04-16T07:05:36.140Z,17.10
2018-04-16T07:08:05.346Z,15.33
2018-04-16T07:10:34.511Z,14.70
2018-04-16T07:13:03.695Z,14.07
2018-04-16T07:15:32.861Z,13.90
2018-04-16T07:18:02.041Z,14.60
2018-04-16T07:20:31.209Z,14.47
2018-04-16T07:25:49.692Z,13.70
2018-04-16T07:28:18.849Z,15.50
2018-04-16T07:30:47.963Z,15.37
2018-04-16T07:33:17.108Z,13.33
2018-04-16T07:35:46.260Z,14.83
2018-04-16T07:38:15.411Z,19.63
2018-04-16T07:40:44.519Z,20.70
2018-04-16T07:43:13.704Z,18.70
2018-04-16T07:45:42.827Z,19.30
2018-04-16T07:48:11.967Z,16.50
2018-04-16T07:50:41.110Z,16.60
2018-04-16T07:53:10.272Z,14.93
2018-04-16T07:55:39.421Z,15.10
2018-04-16T07:58:08.545Z,14.97
2018-04-16T08:00:37.695Z,14.63
2018-04-16T08:03:06.860Z,15.37
2018-04-16T08:05:36.055Z,15.63
2018-04-16T08:08:05.202Z,15.20
2018-04-16T08:10:34.359Z,13.80
2018-04-16T08:13:03.662Z,12.70
2018-04-16T08:15:32.844Z,12.70
2018-04-16T08:18:01.981Z,12.03
2018-04-16T08:20:31.128Z,14.80
2018-04-16T08:23:00.329Z,17.77
2018-04-16T08:25:29.437Z,11.60
2018-04-16T08:27:58.629Z,11.90
2018-04-16T08:30:27.778Z,12.30
2018-04-16T08:32:56.973Z,15.47
2018-04-16T08:35:26.141Z,23.93
2018-04-16T08:37:55.330Z,39.03
2018-04-16T08:40:24.492Z,47.40
2018-04-16T08:42:53.645Z,33.90
2018-04-16T08:45:22.768Z,32.63
2018-04-16T08:47:51.944Z,29.03
2018-04-16T08:50:21.075Z,27.30
2018-04-16T08:52:50.301Z,19.07
2018-04-16T08:55:19.445Z,14.93
2018-04-16T08:57:48.574Z,14.33
2018-04-16T09:00:17.765Z,12.30
2018-04-16T09:02:46.911Z,12.30
2018-04-16T09:05:16.121Z,12.63
2018-04-16T09:07:45.245Z,13.93
2018-04-16T09:10:14.421Z,11.53
2018-04-16T09:12:43.559Z,13.40
2018-04-16T09:15:12.677Z,10.90
2018-04-16T09:17:41.868Z,10.67
2018-04-16T09:20:11.008Z,11.30
2018-04-16T09:22:40.137Z,11.07
2018-04-16T09:25:09.311Z,11.50
2018-04-16T09:27:38.487Z,11.07
2018-04-16T09:30:07.580Z,11.27
2018-04-16T09:32:36.730Z,11.00
2018-04-16T09:35:05.852Z,11.90
2018-04-16T09:37:34.983Z,11.37
2018-04-16T09:40:04.123Z,10.97
2018-04-16T09:42:33.275Z,14.00
2018-04-16T09:45:02.443Z,15.03
2018-04-16T09:47:31.561Z,14.47
2018-04-16T09:50:00.701Z,15.50
2018-04-16T09:52:29.849Z,13.87
2018-04-16T09:54:58.986Z,14.53
2018-04-16T09:57:28.130Z,13.33
2018-04-16T09:59:57.296Z,17.30
2018-04-16T10:02:26.443Z,16.47
2018-04-16T10:04:55.558Z,17.97
2018-04-16T10:07:24.690Z,19.37
2018-04-16T10:09:53.833Z,21.60
2018-04-16T10:12:22.993Z,23.87
2018-04-16T10:14:52.143Z,23.23
2018-04-16T10:17:21.249Z,21.37
2018-04-16T10:19:50.395Z,22.87
2018-04-16T10:22:19.543Z,22.50
2018-04-16T10:24:48.696Z,19.27
2018-04-16T10:27:18.314Z,20.83
2018-04-16T10:29:47.429Z,21.43
2018-04-16T10:32:16.548Z,19.57
2018-04-16T10:34:45.734Z,18.73
2018-04-16T10:37:14.893Z,17.63
2018-04-16T10:39:44.001Z,18.20
2018-04-16T10:42:13.168Z,18.83
2018-04-16T10:44:42.290Z,15.97
2018-04-16T10:47:11.405Z,15.17
2018-04-16T10:49:40.586Z,15.27
2018-04-16T10:52:09.751Z,16.47
2018-04-16T10:54:38.901Z,15.43
2018-04-16T10:57:08.019Z,17.67
2018-04-16T10:59:37.190Z,39.93
2018-04-16T11:02:06.308Z,20.50
2018-04-16T11:04:35.429Z,21.30
2018-04-16T11:07:04.572Z,20.53
2018-04-16T11:09:33.685Z,22.40
2018-04-16T11:12:02.843Z,22.33
2018-04-16T11:14:32.001Z,22.70
2018-04-16T11:17:01.169Z,21.53
2018-04-16T11:19:30.344Z,22.70
2018-04-16T11:21:59.477Z,22.80
2018-04-16T11:24:28.599Z,20.33
2018-04-16T11:26:57.772Z,22.07
2018-04-16T11:29:26.923Z,21.57
2018-04-16T11:31:56.035Z,21.43
2018-04-16T11:34:25.200Z,19.77
2018-04-16T11:36:54.315Z,21.10
2018-04-16T11:39:23.467Z,20.23
2018-04-16T11:41:52.629Z,20.10
2018-04-16T11:44:21.756Z,19.67
2018-04-16T11:46:50.876Z,22.37
2018-04-16T11:49:20.063Z,18.80
2018-04-16T11:51:49.185Z,18.50
2018-04-16T11:54:18.300Z,19.63
2018-04-16T11:56:47.458Z,20.00
2018-04-16T11:59:16.645Z,20.37
2018-04-16T12:01:45.772Z,22.60
2018-04-16T12:04:14.950Z,23.47
2018-04-16T12:06:44.064Z,21.50
2018-04-16T12:09:13.227Z,20.97
2018-04-16T12:11:42.352Z,20.77
2018-04-16T12:14:11.491Z,20.80
2018-04-16T12:16:40.641Z,21.70
2018-04-16T12:19:09.760Z,22.00
2018-04-16T12:21:38.921Z,21.97
2018-04-16T12:24:08.144Z,20.97
2018-04-16T12:26:37.253Z,21.87
2018-04-16T12:29:06.384Z,22.47
2018-04-16T12:31:35.500Z,22.17
2018-04-16T12:34:04.640Z,20.10
2018-04-16T12:36:33.761Z,20.90
2018-04-16T12:39:02.891Z,21.37
2018-04-16T12:41:32.030Z,21.83
2018-04-16T12:44:01.182Z,21.13
2018-04-16T12:46:30.323Z,19.93
2018-04-16T12:48:59.461Z,21.30
2018-04-16T12:51:28.632Z,20.67
2018-04-16T12:53:57.741Z,20.37
2018-04-16T12:56:26.907Z,19.43
2018-04-16T12:58:56.041Z,22.13
2018-04-16T13:01:25.186Z,22.20
2018-04-16T13:03:54.325Z,20.73
2018-04-16T13:06:23.696Z,22.33
2018-04-16T13:08:52.820Z,23.07
2018-04-16T13:11:21.927Z,23.00
2018-04-16T13:13:51.084Z,22.17
2018-04-16T13:16:20.224Z,22.60
2018-04-16T13:18:49.365Z,22.60
2018-04-16T13:21:24.665Z,22.50
2018-04-16T13:23:53.868Z,24.30
2018-04-16T13:26:22.960Z,23.53
2018-04-16T13:28:52.123Z,24.50
2018-04-16T13:31:21.263Z,22.50
2018-04-16T13:33:50.376Z,23.90
2018-04-16T13:36:19.576Z,23.73
2018-04-16T13:38:48.692Z,23.23
2018-04-16T13:41:17.829Z,22.70
2018-04-16T13:43:47.005Z,26.40
2018-04-16T13:46:16.154Z,22.87
2018-04-16T13:48:45.284Z,22.93
2018-04-16T13:51:14.456Z,23.60
2018-04-16T13:53:43.574Z,22.77
2018-04-16T13:56:12.750Z,23.17
2018-04-16T13:58:41.903Z,21.33
2018-04-16T14:01:11.047Z,20.47
2018-04-16T14:03:40.175Z,24.40
2018-04-16T14:06:09.352Z,22.30
2018-04-16T14:08:38.488Z,22.47
2018-04-16T14:11:07.660Z,23.73
2018-04-16T14:13:36.809Z,23.63
2018-04-16T14:16:05.956Z,23.60
2018-04-16T14:18:35.171Z,22.73
2018-04-16T14:21:04.310Z,23.17
2018-04-16T14:23:33.432Z,22.10
2018-04-16T14:26:02.608Z,22.70
2018-04-16T14:28:31.741Z,22.00
2018-04-16T14:31:00.866Z,23.10
2018-04-16T14:33:30.032Z,23.73
2018-04-16T14:35:59.211Z,23.80
2018-04-16T14:38:28.283Z,22.43
2018-04-16T14:40:57.447Z,23.50
2018-04-16T14:43:26.598Z,23.90
2018-04-16T14:45:55.734Z,21.63
2018-04-16T14:48:24.880Z,23.17
2018-04-16T14:50:54.020Z,23.90
2018-04-16T14:53:23.138Z,23.27
2018-04-16T14:55:52.285Z,23.20
2018-04-16T14:58:21.400Z,22.57
2018-04-16T15:00:50.548Z,22.03
2018-04-16T15:03:19.723Z,22.63
2018-04-16T15:05:48.842Z,19.53
2018-04-16T15:08:17.979Z,17.87
2018-04-16T15:10:47.128Z,17.77
2018-04-16T15:13:16.280Z,18.03
2018-04-16T15:15:45.405Z,18.80
2018-04-16T15:18:14.512Z,19.17
2018-04-16T15:20:43.657Z,19.70
2018-04-16T15:23:12.802Z,18.90
2018-04-16T15:25:41.961Z,18.30
2018-04-16T15:28:11.109Z,18.97
2018-04-16T15:30:40.222Z,19.33
2018-04-16T15:33:09.384Z,17.70
2018-04-16T15:35:38.525Z,18.20
2018-04-16T15:38:07.633Z,19.50
2018-04-16T15:40:36.806Z,18.93
2018-04-16T15:43:05.929Z,17.87
2018-04-16T15:45:35.060Z,16.40
2018-04-16T15:48:04.296Z,16.97
2018-04-16T15:50:33.444Z,16.87
2018-04-16T15:53:02.599Z,17.37
2018-04-16T15:55:31.759Z,17.17
2018-04-16T15:58:00.884Z,17.80
2018-04-16T16:00:30.050Z,17.93
2018-04-16T16:02:59.190Z,18.90
2018-04-16T16:05:28.397Z,18.80
2018-04-16T16:07:57.511Z,18.93
2018-04-16T16:10:26.656Z,17.90
2018-04-16T16:12:55.799Z,19.87
2018-04-16T16:15:24.943Z,18.80
2018-04-16T16:17:54.090Z,18.60
2018-04-16T16:20:23.248Z,18.10
2018-04-16T16:22:52.374Z,20.00
2018-04-16T16:25:21.524Z,21.40
2018-04-16T16:27:50.678Z,21.40
2018-04-16T16:30:19.891Z,22.83
2018-04-16T16:32:49.070Z,23.50
2018-04-16T16:35:18.212Z,23.60
2018-04-16T16:37:47.389Z,23.20
2018-04-16T16:40:16.610Z,20.97
2018-04-16T16:42:45.793Z,21.87
2018-04-16T16:45:14.945Z,20.47
2018-04-16T16:47:44.094Z,21.30
2018-04-16T16:50:13.236Z,21.03
2018-04-16T16:52:42.463Z,21.80
2018-04-16T16:55:12.039Z,21.97
2018-04-16T16:57:41.166Z,20.17
2018-04-16T17:00:10.281Z,20.37
2018-04-16T17:02:39.425Z,12.93
2018-04-16T17:05:08.570Z,10.30
2018-04-16T17:07:37.687Z,10.60
2018-04-16T17:10:06.847Z,8.10
2018-04-16T17:12:35.969Z,8.57
2018-04-16T17:15:05.116Z,7.63
2018-04-16T17:17:34.296Z,9.77
2018-04-16T17:20:03.452Z,10.00
2018-04-16T17:22:32.565Z,9.70
2018-04-16T17:25:01.725Z,8.43
2018-04-16T17:27:30.842Z,9.23
2018-04-16T17:29:59.984Z,11.30
2018-04-16T17:32:29.140Z,10.03
2018-04-16T17:34:58.261Z,10.83
2018-04-16T17:37:27.406Z,10.93
2018-04-16T17:39:56.683Z,15.77
2018-04-16T17:42:25.820Z,12.37
2018-04-16T17:44:54.941Z,17.03
2018-04-16T17:47:24.096Z,21.40
2018-04-16T17:49:53.240Z,16.03
2018-04-16T17:52:22.354Z,17.20
2018-04-16T17:54:51.540Z,21.30
2018-04-16T17:57:20.880Z,30.77
2018-04-16T17:59:49.996Z,25.27
2018-04-16T18:02:19.163Z,25.27
2018-04-16T18:04:48.278Z,21.17
2018-04-16T18:07:17.416Z,24.00
2018-04-16T18:09:46.606Z,17.80
2018-04-16T18:12:15.742Z,27.50
2018-04-16T18:14:44.864Z,26.67
2018-04-16T18:17:14.088Z,25.00
2018-04-16T18:19:43.215Z,26.83
2018-04-16T18:22:12.324Z,17.57
2018-04-16T18:24:41.483Z,29.90
2018-04-16T18:27:10.617Z,31.60
2018-04-16T18:29:39.781Z,32.27
2018-04-16T18:32:08.921Z,33.50
2018-04-16T18:34:38.061Z,32.30
2018-04-16T18:37:07.203Z,32.83
2018-04-16T18:39:36.315Z,33.53
2018-04-16T18:42:05.461Z,34.30
2018-04-16T18:44:34.616Z,33.50
2018-04-16T18:47:03.752Z,32.40
2018-04-16T18:49:32.885Z,32.10
2018-04-16T18:52:02.018Z,29.73
2018-04-16T18:54:31.152Z,31.03
2018-04-16T18:57:00.269Z,28.63
2018-04-16T18:59:29.928Z,28.00
2018-04-16T19:01:59.072Z,26.83
2018-04-16T19:04:28.200Z,23.07
2018-04-16T19:06:57.404Z,22.10
2018-04-16T19:09:26.540Z,20.13
2018-04-16T19:11:55.729Z,20.93
2018-04-16T19:14:24.893Z,21.13
2018-04-16T19:16:54.030Z,21.53
2018-04-16T19:19:23.167Z,21.70
2018-04-16T19:21:53.152Z,20.30
2018-04-16T19:24:22.333Z,19.20
2018-04-16T19:26:57.351Z,18.13
2018-04-16T19:29:26.492Z,15.97
2018-04-16T19:31:55.644Z,16.60
2018-04-16T19:34:30.561Z,15.50
2018-04-16T19:36:59.724Z,14.07
2018-04-16T19:39:28.860Z,13.50
2018-04-16T19:42:03.650Z,12.80
2018-04-16T19:44:32.760Z,12.33
2018-04-16T19:47:01.887Z,13.93
2018-04-16T19:49:36.708Z,13.27
2018-04-16T19:52:05.860Z,12.90
2018-04-16T19:54:34.980Z,13.77
2018-04-16T19:57:09.859Z,13.53
2018-04-16T19:59:39.112Z,15.00
2018-04-16T20:02:23.923Z,15.47
2018-04-16T20:04:53.059Z,15.60
2018-04-16T20:07:22.179Z,14.97
2018-04-16T20:09:51.324Z,17.00
2018-04-16T20:12:20.440Z,16.63
2018-04-16T20:14:49.583Z,16.70
2018-04-16T20:17:18.781Z,17.00
2018-04-16T20:19:47.928Z,16.03
2018-04-16T20:22:17.084Z,17.27
2018-04-16T20:24:46.272Z,17.97
2018-04-16T20:27:15.392Z,16.63
2018-04-16T20:29:44.541Z,17.80
2018-04-16T20:32:13.691Z,16.87
2018-04-16T20:34:42.805Z,17.80
2018-04-16T20:37:11.944Z,16.70
2018-04-16T20:39:41.061Z,17.30
2018-04-16T20:42:10.194Z,17.70
2018-04-16T20:44:39.364Z,17.20
2018-04-16T20:47:08.496Z,16.60
2018-04-16T20:49:37.621Z,15.73
2018-04-16T20:52:06.801Z,16.20
2018-04-16T20:54:35.972Z,18.70
2018-04-16T20:57:05.094Z,17.57
2018-04-16T20:59:34.274Z,17.37
2018-04-16T21:02:03.812Z,17.33
2018-04-16T21:04:32.943Z,17.13
2018-04-16T21:07:02.113Z,18.37
2018-04-16T21:09:31.756Z,20.00
2018-04-16T21:12:00.940Z,23.30
2018-04-16T21:14:30.134Z,31.07
2018-04-16T21:16:59.240Z,36.80
2018-04-16T21:19:28.372Z,48.23
2018-04-16T21:21:57.545Z,51.63
2018-04-16T21:24:26.723Z,52.93
2018-04-16T21:26:55.881Z,53.30
2018-04-16T21:29:25.051Z,55.30
2018-04-16T21:31:54.177Z,54.20
2018-04-16T21:34:23.313Z,53.23
2018-04-16T21:36:52.489Z,55.40
2018-04-16T21:39:21.612Z,55.30
2018-04-16T21:41:50.751Z,57.47
2018-04-16T21:44:19.921Z,53.30
2018-04-16T21:46:49.056Z,53.77
2018-04-16T21:49:18.193Z,50.60
2018-04-16T21:51:47.342Z,55.03
2018-04-16T21:54:16.500Z,51.40
2018-04-16T21:56:45.620Z,47.80
2018-04-16T21:59:14.742Z,49.90
2018-04-16T22:01:43.884Z,41.93
2018-04-16T22:04:13.041Z,46.23
2018-04-16T22:06:42.181Z,46.13
2018-04-16T22:09:11.346Z,43.83
2018-04-16T22:11:40.495Z,49.33
2018-04-16T22:14:09.632Z,52.33
2018-04-16T22:16:38.787Z,50.53
2018-04-16T22:19:07.924Z,53.07
2018-04-16T22:21:37.055Z,53.63
2018-04-16T22:24:06.268Z,51.40
2018-04-16T22:26:35.387Z,52.47
2018-04-16T22:29:04.549Z,49.17
2018-04-16T22:31:33.715Z,52.00
2018-04-16T22:34:02.839Z,50.70
2018-04-16T22:36:31.954Z,48.97
2018-04-16T22:39:01.101Z,49.93
2018-04-16T22:41:30.268Z,51.03
2018-04-16T22:43:59.377Z,49.03
2018-04-16T22:46:28.491Z,49.30
2018-04-16T22:48:57.667Z,42.40
2018-04-16T22:51:26.856Z,43.30
2018-04-16T22:53:56.003Z,43.00
2018-04-16T22:56:25.200Z,50.40
2018-04-16T22:58:54.333Z,51.80
2018-04-16T23:01:23.494Z,52.40
2018-04-16T23:03:52.611Z,52.80
2018-04-16T23:06:21.775Z,52.97
2018-04-16T23:08:50.905Z,51.50
2018-04-16T23:11:20.016Z,53.93
2018-04-16T23:13:49.188Z,49.83
2018-04-16T23:16:18.324Z,45.60
2018-04-16T23:18:47.471Z,41.60
2018-04-16T23:21:16.647Z,35.07
2018-04-16T23:23:45.757Z,32.30
2018-04-16T23:26:14.869Z,29.73
2018-04-16T23:28:44.005Z,29.30
2018-04-16T23:31:13.128Z,26.93
2018-04-16T23:33:42.307Z,25.53
2018-04-16T23:36:11.511Z,23.60
2018-04-16T23:38:40.622Z,23.10
2018-04-16T23:41:09.774Z,21.37
2018-04-16T23:43:38.943Z,20.93
2018-04-16T23:46:08.059Z,21.27
2018-04-16T23:48:37.179Z,20.10
2018-04-16T23:51:06.505Z,19.67
2018-04-16T23:53:35.618Z,20.93
2018-04-16T23:56:04.761Z,18.40
2018-04-16T23:58:33.936Z,16.80
